Terminal Aerodrome Forecast
Issued by NWS

Home | Current Version | Previous Version | Text Only | Print | Product List | Glossary On
Versions: 1 2 3 4 5 6 7 8 9 10 11 12 13 14 15 16
213
FTUS41 KPHI 281120
TAFPNE
TAF
KPNE 281120Z 2812/0112 VRB03KT P6SM BKN090
     FM281500 15004KT P6SM SCT250
     FM282200 17006KT P6SM BKN040 BKN090
     FM010000 15005KT 2SM SHRA BR BKN025 OVC050
     FM010300 18005KT 2SM SHRA BR OVC008
     FM010700 20007KT 2SM BR OVC003 WS020/23035KT=

USA.gov is the U.S. government's official web portal to all federal, state and local government web resources and services.